Time;durP1;ratioP1;P1;durP2;ratioP2;P2;SDS_P1;SDS_P2;PMS_P1;PMS_P2;Temp;Humidity;BMP_temperature;BMP_pressure;BME280_temperature;BME280_humidity;BME280_pressure;Samples;Min_cycle;Max_cycle;Signal;HPM_P1;HPM_P2
2020/12/19 00:02:14;;;;;;;75.63;60.78;;;10.00;99.90;;;;;;4923341;29;20024;-76
2020/12/19 00:04:40;;;;;;;66.88;59.53;;;10.00;99.90;;;;;;4928245;29;20368;-76
2020/12/19 00:07:06;;;;;;;64.95;56.22;;;10.00;99.90;;;;;;4942010;29;20107;-75
2020/12/19 00:09:32;;;;;;;65.47;57.97;;;10.10;99.90;;;;;;4951521;29;20070;-75
2020/12/19 00:11:58;;;;;;;65.90;56.17;;;10.10;99.90;;;;;;4948773;28;20028;-77
2020/12/19 00:14:24;;;;;;;68.57;60.30;;;10.10;99.90;;;;;;4939601;29;20439;-77
2020/12/19 00:16:49;;;;;;;67.72;58.20;;;10.10;99.90;;;;;;4941481;29;20028;-75
2020/12/19 00:19:18;;;;;;;66.40;57.17;;;10.20;99.90;;;;;;4922512;29;20023;-75
2020/12/19 00:21:44;;;;;;;71.28;62.58;;;10.10;99.90;;;;;;4922482;29;20103;-77
2020/12/19 00:24:10;;;;;;;71.30;59.65;;;10.10;99.90;;;;;;4921958;29;20440;-75
2020/12/19 00:26:38;;;;;;;67.65;57.92;;;10.00;99.90;;;;;;4942317;29;20027;-75
2020/12/19 00:29:06;;;;;;;72.03;61.55;;;10.00;99.90;;;;;;4930175;29;20023;-76
2020/12/19 00:31:32;;;;;;;71.05;59.80;;;10.20;99.90;;;;;;4945595;29;20038;-76
2020/12/19 00:33:58;;;;;;;70.60;59.40;;;10.20;99.90;;;;;;4940354;29;20106;-75
2020/12/19 00:36:24;;;;;;;76.07;63.20;;;10.20;99.90;;;;;;4940338;29;20077;-75
2020/12/19 00:38:50;;;;;;;68.80;59.88;;;10.20;99.90;;;;;;4940305;29;20457;-74
2020/12/19 00:41:18;;;;;;;79.15;67.75;;;10.10;99.90;;;;;;4921492;29;20119;-77
2020/12/19 00:43:44;;;;;;;81.18;68.63;;;10.00;99.90;;;;;;4938453;29;20019;-75
2020/12/19 00:46:13;;;;;;;76.70;66.88;;;10.00;99.90;;;;;;4939452;29;20158;-78
2020/12/19 00:48:40;;;;;;;66.57;59.03;;;10.00;99.90;;;;;;4938708;29;20570;-76
2020/12/19 00:51:14;;;;;;;71.97;62.25;;;10.00;99.90;;;;;;4938945;29;20059;-76
2020/12/19 00:53:41;;;;;;;69.60;61.97;;;10.00;99.90;;;;;;4939026;29;20550;-76
2020/12/19 00:56:15;;;;;;;69.57;60.25;;;10.00;99.90;;;;;;4939134;29;20380;-76
2020/12/19 00:58:41;;;;;;;68.93;61.50;;;9.90;99.90;;;;;;4939692;29;20083;-76
2020/12/19 01:01:06;;;;;;;73.32;62.72;;;10.00;99.90;;;;;;4939921;29;20032;-75
2020/12/19 01:03:32;;;;;;;75.75;65.68;;;10.00;99.90;;;;;;4939513;29;20036;-76
2020/12/19 01:05:58;;;;;;;69.25;61.67;;;10.00;99.90;;;;;;4940448;29;20027;-76
2020/12/19 01:08:24;;;;;;;69.55;61.60;;;10.10;99.90;;;;;;4940747;29;20027;-75
2020/12/19 01:10:49;;;;;;;68.00;60.45;;;10.10;99.90;;;;;;4934114;29;20027;-80
2020/12/19 01:13:15;;;;;;;78.97;65.57;;;10.10;99.90;;;;;;4950927;29;20027;-76
2020/12/19 01:15:41;;;;;;;78.88;66.03;;;10.10;99.90;;;;;;4952417;29;20036;-76
2020/12/19 01:18:07;;;;;;;84.25;67.22;;;10.10;99.90;;;;;;4944810;29;20103;-76
2020/12/19 01:20:32;;;;;;;74.85;65.35;;;10.20;99.90;;;;;;4949090;29;20020;-76
2020/12/19 01:22:59;;;;;;;73.13;65.20;;;10.10;99.90;;;;;;4941691;29;20152;-76
2020/12/19 01:25:25;;;;;;;67.82;59.30;;;10.10;99.90;;;;;;4943702;29;20023;-76
2020/12/19 01:27:51;;;;;;;72.03;64.05;;;10.10;99.90;;;;;;4945986;29;20091;-76
2020/12/19 01:30:17;;;;;;;73.03;62.83;;;10.10;99.90;;;;;;4951831;29;20032;-77
2020/12/19 01:32:43;;;;;;;82.40;71.20;;;10.20;99.90;;;;;;4928109;29;20055;-76
2020/12/19 01:35:12;;;;;;;88.35;72.78;;;10.20;99.90;;;;;;4930554;29;20036;-76
2020/12/19 01:37:37;;;;;;;83.75;69.15;;;10.30;99.90;;;;;;4952264;29;20510;-76
2020/12/19 01:40:03;;;;;;;79.50;69.13;;;10.30;99.90;;;;;;4947575;29;20042;-76
2020/12/19 01:42:29;;;;;;;80.25;68.47;;;10.30;99.90;;;;;;4946091;29;20497;-76
2020/12/19 01:44:55;;;;;;;76.70;67.70;;;10.30;99.90;;;;;;4946714;29;20023;-76
2020/12/19 01:47:22;;;;;;;75.38;67.07;;;10.30;99.90;;;;;;4939917;29;20037;-76
2020/12/19 01:49:48;;;;;;;78.47;66.70;;;10.30;99.90;;;;;;4955358;29;20486;-76
2020/12/19 01:52:18;;;;;;;74.45;65.38;;;10.20;99.90;;;;;;4924319;29;20031;-76
2020/12/19 01:54:48;;;;;;;77.00;68.38;;;10.20;99.90;;;;;;4924461;29;20035;-76
2020/12/19 01:57:21;;;;;;;79.05;65.82;;;10.20;99.90;;;;;;4935849;29;20042;-76
2020/12/19 01:59:47;;;;;;;72.65;65.13;;;10.30;99.90;;;;;;4927294;29;20510;-76
2020/12/19 02:02:16;;;;;;;73.63;65.65;;;10.30;99.90;;;;;;4933132;29;20039;-75
2020/12/19 02:04:42;;;;;;;71.15;63.47;;;10.30;99.90;;;;;;4941695;29;20075;-76
2020/12/19 02:07:08;;;;;;;72.32;64.43;;;10.30;99.90;;;;;;4944829;29;20048;-75
2020/12/19 02:09:39;;;;;;;69.82;60.40;;;10.30;99.90;;;;;;4937988;29;20070;-76
2020/12/19 02:12:06;;;;;;;68.55;58.03;;;10.20;99.90;;;;;;4943507;29;20443;-75
2020/12/19 02:14:32;;;;;;;63.70;57.03;;;10.20;99.90;;;;;;4940006;29;20276;-75
2020/12/19 02:17:08;;;;;;;63.72;56.72;;;10.10;99.90;;;;;;4937635;29;20041;-75
2020/12/19 02:19:34;;;;;;;60.15;53.55;;;10.10;99.90;;;;;;4944829;29;20015;-76
2020/12/19 02:22:01;;;;;;;64.07;49.47;;;10.10;99.90;;;;;;4947060;29;20451;-75
2020/12/19 02:24:27;;;;;;;77.45;64.05;;;10.20;99.90;;;;;;4942292;29;20042;-75
2020/12/19 02:26:55;;;;;;;72.03;63.75;;;10.20;99.90;;;;;;4942400;29;20028;-75
2020/12/19 02:29:22;;;;;;;72.50;59.47;;;10.20;99.90;;;;;;4948783;29;20019;-75
2020/12/19 02:31:49;;;;;;;72.10;64.35;;;10.20;99.90;;;;;;4935297;29;20039;-77
2020/12/19 02:34:16;;;;;;;76.40;65.35;;;10.10;99.90;;;;;;4930301;29;20059;-76
2020/12/19 02:36:42;;;;;;;74.65;63.63;;;10.20;99.90;;;;;;4943087;28;20027;-76
2020/12/19 02:39:09;;;;;;;63.90;56.72;;;10.20;99.90;;;;;;4945319;29;20035;-76
2020/12/19 02:41:36;;;;;;;57.97;51.47;;;10.20;99.90;;;;;;4949014;29;20445;-79
2020/12/19 02:44:02;;;;;;;51.88;44.45;;;10.10;99.90;;;;;;4933011;29;20023;-76
2020/12/19 02:46:28;;;;;;;48.35;39.72;;;10.10;99.90;;;;;;4947368;29;20033;-75
2020/12/19 02:48:54;;;;;;;45.08;37.15;;;10.10;99.90;;;;;;4949898;29;20055;-75
2020/12/19 02:51:20;;;;;;;45.63;40.65;;;10.00;99.90;;;;;;4942531;29;20383;-76
2020/12/19 02:53:45;;;;;;;45.30;40.28;;;10.00;99.90;;;;;;4945952;29;20024;-76
2020/12/19 02:56:11;;;;;;;63.17;55.05;;;10.10;99.90;;;;;;4949594;29;20063;-76
2020/12/19 02:58:37;;;;;;;48.83;43.60;;;10.20;99.90;;;;;;4950978;29;20486;-76
2020/12/19 03:01:03;;;;;;;55.90;47.75;;;10.10;99.90;;;;;;4930660;29;20044;-76
2020/12/19 03:03:29;;;;;;;56.25;49.25;;;10.10;99.90;;;;;;4939234;29;20020;-75
2020/12/19 03:05:55;;;;;;;70.43;60.58;;;10.00;99.90;;;;;;4944724;29;20038;-76
2020/12/19 03:08:20;;;;;;;73.20;60.42;;;10.10;99.90;;;;;;4931717;29;20550;-76
2020/12/19 03:10:46;;;;;;;75.68;64.65;;;10.10;99.90;;;;;;4949123;29;20379;-75
2020/12/19 03:13:12;;;;;;;80.90;67.25;;;10.20;99.90;;;;;;4935430;29;20074;-76
2020/12/19 03:15:38;;;;;;;83.03;67.63;;;10.20;99.90;;;;;;4943261;29;20510;-75
2020/12/19 03:18:03;;;;;;;78.20;63.88;;;10.10;99.90;;;;;;4950505;29;20031;-75
2020/12/19 03:20:29;;;;;;;81.18;64.53;;;10.20;99.90;;;;;;4953718;29;20058;-75
2020/12/19 03:22:55;;;;;;;71.53;62.47;;;10.20;99.90;;;;;;4937853;29;20034;-75
2020/12/19 03:25:21;;;;;;;77.22;63.92;;;10.20;99.90;;;;;;4930997;29;20734;-76
2020/12/19 03:27:47;;;;;;;74.63;65.75;;;10.10;99.90;;;;;;4937004;29;20024;-75
2020/12/19 03:30:13;;;;;;;74.45;61.85;;;10.10;99.90;;;;;;4935290;29;20027;-76
2020/12/19 03:32:38;;;;;;;77.95;64.45;;;10.10;99.90;;;;;;4926568;29;20035;-76
2020/12/19 03:35:05;;;;;;;73.90;65.38;;;10.10;99.90;;;;;;4930332;29;20027;-75
2020/12/19 03:37:33;;;;;;;75.90;65.40;;;10.20;99.90;;;;;;4943779;29;20374;-75
2020/12/19 03:40:00;;;;;;;74.85;60.72;;;10.20;99.90;;;;;;4946208;29;20479;-75
2020/12/19 03:42:26;;;;;;;74.90;62.05;;;10.20;99.90;;;;;;4938957;29;20031;-75
2020/12/19 03:44:51;;;;;;;78.38;63.17;;;10.20;99.90;;;;;;4923339;29;20507;-75
2020/12/19 03:47:25;;;;;;;81.15;64.75;;;10.40;99.90;;;;;;4944246;28;20039;-75
2020/12/19 03:49:51;;;;;;;79.15;62.95;;;10.50;99.90;;;;;;4949609;28;20087;-75
2020/12/19 03:52:17;;;;;;;76.53;64.28;;;10.50;99.90;;;;;;4953363;28;20480;-75
2020/12/19 03:54:43;;;;;;;82.10;63.67;;;10.40;99.90;;;;;;4948503;28;20039;-75
2020/12/19 03:57:09;;;;;;;78.45;63.75;;;10.30;99.90;;;;;;4931118;29;20114;-75
2020/12/19 03:59:35;;;;;;;82.05;67.40;;;10.30;99.90;;;;;;4934431;29;20033;-76
2020/12/19 04:02:01;;;;;;;77.88;64.88;;;10.30;99.90;;;;;;4957160;28;20023;-75
2020/12/19 04:04:26;;;;;;;82.22;65.70;;;10.40;99.90;;;;;;4949063;29;20035;-75
2020/12/19 04:06:52;;;;;;;82.65;67.78;;;10.40;99.90;;;;;;4953269;29;20532;-76
2020/12/19 04:09:18;;;;;;;85.03;65.53;;;10.40;99.90;;;;;;4953402;29;20352;-75
2020/12/19 04:11:44;;;;;;;83.10;66.55;;;10.40;99.90;;;;;;4954178;29;20486;-75
2020/12/19 04:14:10;;;;;;;80.53;65.90;;;10.50;99.90;;;;;;4934476;29;20028;-75
2020/12/19 04:16:36;;;;;;;82.97;65.93;;;10.50;99.90;;;;;;4951054;29;20043;-76
2020/12/19 04:19:02;;;;;;;73.22;62.50;;;10.60;99.90;;;;;;4929494;29;20482;-75
2020/12/19 04:21:28;;;;;;;76.68;63.90;;;10.60;99.90;;;;;;4942945;29;20158;-75
2020/12/19 04:23:54;;;;;;;81.68;63.67;;;10.50;99.90;;;;;;4926070;29;20182;-75
2020/12/19 04:26:19;;;;;;;76.53;61.83;;;10.50;99.90;;;;;;4951267;29;20039;-75
2020/12/19 04:28:45;;;;;;;76.35;64.40;;;10.50;99.90;;;;;;4946701;29;20060;-75
2020/12/19 04:31:11;;;;;;;81.88;61.72;;;10.60;99.90;;;;;;4954864;29;20027;-76
2020/12/19 04:33:37;;;;;;;70.10;59.40;;;10.50;99.90;;;;;;4952677;28;20401;-76
2020/12/19 04:36:04;;;;;;;69.90;59.17;;;10.40;99.90;;;;;;4943420;29;20038;-78
2020/12/19 04:38:30;;;;;;;77.38;63.65;;;10.40;99.90;;;;;;4956882;29;20094;-76
2020/12/19 04:40:58;;;;;;;65.15;57.55;;;10.40;99.90;;;;;;4950916;29;20098;-80
2020/12/19 04:43:27;;;;;;;68.07;57.63;;;10.30;99.90;;;;;;4950672;29;20070;-75
2020/12/19 04:45:55;;;;;;;81.72;61.10;;;10.30;99.90;;;;;;4948953;29;20114;-76
2020/12/19 04:48:24;;;;;;;66.93;58.15;;;10.40;99.90;;;;;;4945707;29;20028;-76
2020/12/19 04:50:50;;;;;;;68.82;60.08;;;10.40;99.90;;;;;;4940335;29;20023;-75
2020/12/19 04:53:21;;;;;;;70.93;58.25;;;10.30;99.90;;;;;;4962926;28;20028;-75
2020/12/19 04:55:48;;;;;;;70.20;60.72;;;10.40;99.90;;;;;;4948391;29;20020;-75
2020/12/19 04:58:19;;;;;;;68.55;57.33;;;10.50;99.90;;;;;;4962089;29;20031;-75
2020/12/19 05:00:47;;;;;;;66.03;57.63;;;10.50;99.90;;;;;;4961888;29;20031;-75
2020/12/19 05:03:13;;;;;;;75.57;60.90;;;10.50;99.90;;;;;;4950208;29;20031;-76
2020/12/19 05:05:46;;;;;;;70.65;56.88;;;10.50;99.90;;;;;;4944243;29;20031;-76
2020/12/19 05:08:12;;;;;;;65.78;58.72;;;10.50;99.90;;;;;;4950302;29;20030;-75
2020/12/19 05:10:39;;;;;;;67.60;57.78;;;10.50;99.90;;;;;;4927014;29;20122;-76
2020/12/19 05:13:06;;;;;;;65.70;57.33;;;10.50;99.90;;;;;;4944892;29;20031;-75
2020/12/19 05:15:32;;;;;;;70.95;59.13;;;10.50;99.90;;;;;;4950725;29;20039;-76
2020/12/19 05:18:00;;;;;;;71.93;60.33;;;10.60;99.90;;;;;;4945345;29;20054;-76
2020/12/19 05:20:30;;;;;;;73.13;61.08;;;10.60;99.90;;;;;;4929378;29;20027;-76
2020/12/19 05:22:57;;;;;;;73.25;63.75;;;10.60;99.90;;;;;;4941089;29;20024;-75
2020/12/19 05:25:26;;;;;;;89.63;71.38;;;10.60;99.90;;;;;;4929502;29;20035;-76
2020/12/19 05:27:55;;;;;;;83.72;64.13;;;10.60;99.90;;;;;;4949721;29;20023;-76
2020/12/19 05:30:21;;;;;;;73.20;64.82;;;10.60;99.90;;;;;;4921977;29;20032;-76
2020/12/19 05:32:52;;;;;;;69.72;62.00;;;10.60;99.90;;;;;;4953702;29;20060;-76
2020/12/19 05:35:20;;;;;;;76.03;63.08;;;10.60;99.90;;;;;;4928233;29;20399;-76
2020/12/19 05:38:04;;;;;;;73.68;64.60;;;10.60;99.90;;;;;;4943929;29;20142;-75
2020/12/19 05:40:31;;;;;;;77.10;63.00;;;10.60;99.90;;;;;;4939184;29;20031;-76
2020/12/19 05:42:58;;;;;;;127.45;88.05;;;10.60;99.90;;;;;;4927576;29;20042;-76
2020/12/19 05:45:26;;;;;;;329.23;189.57;;;10.60;99.90;;;;;;4943988;29;20040;-76
2020/12/19 05:47:52;;;;;;;208.73;129.05;;;10.70;99.90;;;;;;4942463;29;20028;-78
2020/12/19 05:50:19;;;;;;;176.60;112.30;;;10.60;99.90;;;;;;4947057;29;20028;-76
2020/12/19 05:52:46;;;;;;;112.03;78.80;;;10.60;99.90;;;;;;4954824;29;20137;-76
2020/12/19 05:55:16;;;;;;;107.22;81.38;;;10.60;99.90;;;;;;4945171;29;20034;-75
2020/12/19 05:57:43;;;;;;;109.75;82.85;;;10.50;99.90;;;;;;4926728;29;20040;-76
2020/12/19 06:00:17;;;;;;;96.85;72.72;;;10.50;99.90;;;;;;4943740;29;20424;-76
2020/12/19 06:02:44;;;;;;;71.20;53.33;;;10.50;99.90;;;;;;4943048;29;20087;-75
2020/12/19 06:05:12;;;;;;;67.30;53.85;;;10.60;99.90;;;;;;4942967;29;20467;-76
2020/12/19 06:07:40;;;;;;;68.15;58.58;;;10.60;99.90;;;;;;4949310;29;20595;-75
2020/12/19 06:10:08;;;;;;;78.93;66.03;;;10.50;99.90;;;;;;4947439;28;20035;-75
2020/12/19 06:12:56;;;;;;;68.65;58.20;;;10.50;99.90;;;;;;4950329;29;20173;-75
2020/12/19 06:15:56;;;;;;;65.82;54.42;;;10.50;99.90;;;;;;4945068;29;20083;-76
2020/12/19 06:18:45;;;;;;;72.95;58.92;;;10.50;99.90;;;;;;4951814;29;20043;-76
2020/12/19 06:21:12;;;;;;;56.10;49.90;;;10.50;99.90;;;;;;4949121;29;20422;-75
2020/12/19 06:23:40;;;;;;;58.65;52.13;;;10.50;99.90;;;;;;4952626;29;20035;-76
2020/12/19 06:26:10;;;;;;;59.30;53.00;;;10.50;99.90;;;;;;4933619;29;20023;-76
2020/12/19 06:28:48;;;;;;;57.08;50.67;;;10.50;99.90;;;;;;4950281;29;20023;-76
2020/12/19 06:31:22;;;;;;;63.00;51.63;;;10.60;99.90;;;;;;4951752;29;20036;-76
2020/12/19 06:33:50;;;;;;;63.42;52.70;;;10.60;99.90;;;;;;4946974;29;20034;-75
2020/12/19 06:36:20;;;;;;;74.20;59.85;;;10.60;99.90;;;;;;4929382;29;20549;-76
2020/12/19 06:38:51;;;;;;;68.20;54.70;;;10.60;99.90;;;;;;4930160;29;20034;-75
2020/12/19 06:41:45;;;;;;;62.50;54.78;;;10.60;99.90;;;;;;4947351;29;20038;-75
2020/12/19 06:44:14;;;;;;;67.63;56.30;;;10.60;99.90;;;;;;4948681;29;20020;-76
2020/12/19 06:46:40;;;;;;;68.63;55.88;;;10.50;99.90;;;;;;4930536;29;20046;-76
2020/12/19 06:49:24;;;;;;;71.72;55.90;;;10.60;99.90;;;;;;4946705;29;20019;-76
2020/12/19 06:52:20;;;;;;;66.93;58.13;;;10.60;99.90;;;;;;4942549;29;20066;-77
2020/12/19 06:54:49;;;;;;;74.88;58.28;;;10.60;99.90;;;;;;4944404;29;20459;-76
2020/12/19 06:57:27;;;;;;;74.47;56.45;;;10.60;99.90;;;;;;4948913;29;20154;-77
2020/12/19 06:59:57;;;;;;;69.18;59.35;;;10.60;99.90;;;;;;4953513;29;20031;-76
2020/12/19 07:02:24;;;;;;;68.88;58.30;;;10.60;99.90;;;;;;4949024;29;20094;-76
2020/12/19 07:04:51;;;;;;;75.32;59.45;;;10.50;99.90;;;;;;4926932;29;20074;-76
2020/12/19 07:07:27;;;;;;;74.28;60.25;;;10.60;99.90;;;;;;4943654;29;20032;-75
2020/12/19 07:10:01;;;;;;;77.57;64.82;;;10.60;99.90;;;;;;4925445;29;20486;-75
2020/12/19 07:12:39;;;;;;;77.68;67.55;;;10.70;99.90;;;;;;4942320;29;20098;-75
2020/12/19 07:15:08;;;;;;;76.13;65.45;;;10.60;99.90;;;;;;4945926;29;20521;-76
2020/12/19 07:17:48;;;;;;;66.72;58.35;;;10.60;99.90;;;;;;4947279;29;20050;-75
2020/12/19 07:20:20;;;;;;;72.85;55.67;;;10.60;99.90;;;;;;4926724;29;20439;-76
2020/12/19 07:22:46;;;;;;;61.97;52.20;;;10.60;99.90;;;;;;4934916;29;20044;-76
2020/12/19 07:25:12;;;;;;;60.90;49.38;;;10.60;99.90;;;;;;4937786;29;20023;-77
2020/12/19 07:27:37;;;;;;;65.55;58.15;;;10.60;99.90;;;;;;4925571;29;20043;-78
2020/12/19 07:30:03;;;;;;;69.88;58.97;;;10.70;99.90;;;;;;4941567;29;20036;-80
2020/12/19 07:32:29;;;;;;;65.97;55.60;;;10.60;99.90;;;;;;4939213;29;20495;-76
2020/12/19 07:34:56;;;;;;;59.67;53.20;;;10.60;99.90;;;;;;4927429;29;20045;-76
2020/12/19 07:37:23;;;;;;;61.28;51.55;;;10.80;99.90;;;;;;4947804;29;20026;-77
2020/12/19 07:39:49;;;;;;;63.72;51.78;;;10.80;99.90;;;;;;4952400;29;20043;-76
2020/12/19 07:42:15;;;;;;;65.20;58.25;;;10.90;99.90;;;;;;4949225;29;20080;-75
2020/12/19 07:44:41;;;;;;;61.75;53.80;;;10.90;99.90;;;;;;4928085;29;20031;-75
2020/12/19 07:47:11;;;;;;;61.40;53.40;;;10.90;99.90;;;;;;4925045;29;20024;-76
2020/12/19 07:49:49;;;;;;;57.90;49.92;;;10.80;99.90;;;;;;4958985;29;20052;-75
2020/12/19 07:52:21;;;;;;;57.15;48.85;;;10.90;99.90;;;;;;4913952;29;20630;-75
2020/12/19 07:55:01;;;;;;;55.50;49.20;;;10.90;99.90;;;;;;4945185;29;20095;-75
2020/12/19 07:57:36;;;;;;;49.00;43.72;;;10.90;99.90;;;;;;4938361;29;20516;-76
2020/12/19 08:00:03;;;;;;;46.83;41.80;;;11.00;99.90;;;;;;4945379;29;20032;-75
2020/12/19 08:02:29;;;;;;;59.33;42.53;;;11.00;99.90;;;;;;4937143;29;20119;-76
2020/12/19 08:04:59;;;;;;;53.95;41.95;;;11.00;99.90;;;;;;4935382;29;20518;-78
2020/12/19 08:07:27;;;;;;;46.33;41.33;;;11.00;99.90;;;;;;4943587;29;20051;-74
2020/12/19 08:10:04;;;;;;;51.42;42.13;;;10.90;99.90;;;;;;4939929;29;20042;-75
2020/12/19 08:12:30;;;;;;;44.42;39.33;;;10.90;99.90;;;;;;4937991;29;20475;-75
2020/12/19 08:14:57;;;;;;;50.10;40.20;;;11.00;99.90;;;;;;4942821;29;20027;-73
2020/12/19 08:17:25;;;;;;;59.15;45.33;;;11.10;99.90;;;;;;4944140;29;20444;-73
2020/12/19 08:19:56;;;;;;;44.17;39.25;;;11.20;99.90;;;;;;4952177;29;20386;-73
2020/12/19 08:22:22;;;;;;;44.88;40.25;;;11.20;99.90;;;;;;4947304;29;20036;-73
2020/12/19 08:24:49;;;;;;;50.75;40.97;;;11.20;99.90;;;;;;4944326;29;20016;-73
2020/12/19 08:27:29;;;;;;;47.97;41.47;;;11.20;99.90;;;;;;4947350;29;20035;-74
2020/12/19 08:30:09;;;;;;;61.95;42.47;;;11.20;99.90;;;;;;4948327;29;20442;-73
2020/12/19 08:32:38;;;;;;;54.20;45.45;;;11.20;99.90;;;;;;4900070;29;20051;-74
2020/12/19 08:35:04;;;;;;;51.90;44.53;;;11.40;99.90;;;;;;4949235;29;20023;-73
2020/12/19 08:37:31;;;;;;;58.58;45.25;;;11.40;99.90;;;;;;4947196;29;20027;-74
2020/12/19 08:40:09;;;;;;;53.70;45.08;;;11.40;99.90;;;;;;4950297;29;20110;-73
2020/12/19 08:42:36;;;;;;;55.90;46.25;;;11.40;99.90;;;;;;4947377;29;20063;-73
2020/12/19 08:45:19;;;;;;;60.53;44.97;;;11.40;99.90;;;;;;4924829;29;20020;-74
2020/12/19 08:47:45;;;;;;;58.97;47.13;;;11.50;99.90;;;;;;4955842;29;20110;-74
2020/12/19 08:50:11;;;;;;;58.08;46.97;;;11.50;99.90;;;;;;4952822;29;20019;-74
2020/12/19 08:52:38;;;;;;;52.50;45.60;;;11.60;99.90;;;;;;4944719;29;20037;-73
2020/12/19 08:55:04;;;;;;;52.75;46.80;;;11.60;99.90;;;;;;4931980;29;20123;-74
2020/12/19 08:57:31;;;;;;;53.90;48.13;;;11.60;99.90;;;;;;4951873;29;20466;-73
2020/12/19 09:00:14;;;;;;;61.92;54.67;;;11.70;99.90;;;;;;4948548;29;20024;-74
2020/12/19 09:02:43;;;;;;;72.43;54.88;;;11.60;99.90;;;;;;4932759;29;20091;-74
2020/12/19 09:05:10;;;;;;;70.10;60.60;;;11.60;99.90;;;;;;4953150;29;20027;-74
2020/12/19 09:07:36;;;;;;;62.42;54.60;;;11.60;99.90;;;;;;4934328;29;20023;-74
2020/12/19 09:10:28;;;;;;;76.70;61.83;;;11.70;99.90;;;;;;4951084;29;20043;-73
2020/12/19 09:13:16;;;;;;;68.23;60.70;;;11.80;99.90;;;;;;4962966;29;20042;-74
2020/12/19 09:15:44;;;;;;;76.43;63.33;;;11.80;99.90;;;;;;4938516;29;20032;-74
2020/12/19 09:18:25;;;;;;;69.20;59.15;;;11.70;99.90;;;;;;4959154;29;20034;-74
2020/12/19 09:20:55;;;;;;;70.25;62.10;;;11.80;99.90;;;;;;4948347;29;20031;-74
2020/12/19 09:23:22;;;;;;;72.22;64.07;;;11.80;99.90;;;;;;4969425;29;20031;-73
2020/12/19 09:25:48;;;;;;;70.10;62.25;;;11.80;99.90;;;;;;4953124;29;20114;-73
2020/12/19 09:28:15;;;;;;;72.72;64.97;;;11.80;99.90;;;;;;4929650;29;20028;-73
2020/12/19 09:30:43;;;;;;;80.70;65.60;;;11.90;99.90;;;;;;4927219;29;20024;-73
2020/12/19 09:33:10;;;;;;;87.38;69.95;;;12.00;99.90;;;;;;4943757;29;20708;-74
2020/12/19 09:35:36;;;;;;;78.45;64.05;;;12.10;99.90;;;;;;4928373;29;20402;-74
2020/12/19 09:38:02;;;;;;;77.95;65.30;;;12.10;99.90;;;;;;4941564;29;20078;-74
2020/12/19 09:40:28;;;;;;;88.88;70.43;;;12.20;99.90;;;;;;4939896;29;20087;-74
2020/12/19 09:42:54;;;;;;;111.32;89.03;;;12.40;99.90;;;;;;4949482;29;20037;-75
2020/12/19 09:45:20;;;;;;;111.38;91.20;;;12.40;99.90;;;;;;4931955;29;20118;-75
2020/12/19 09:47:45;;;;;;;102.72;81.00;;;12.50;99.90;;;;;;4947060;29;20031;-74
2020/12/19 09:50:12;;;;;;;73.78;65.70;;;12.50;99.90;;;;;;4945880;29;20086;-74
2020/12/19 09:52:39;;;;;;;71.03;63.38;;;12.50;99.90;;;;;;4919136;29;20123;-74
2020/12/19 09:55:06;;;;;;;76.15;62.47;;;12.50;99.90;;;;;;4922817;29;20406;-75
2020/12/19 09:57:32;;;;;;;81.47;69.15;;;12.50;99.90;;;;;;4951178;29;20035;-74
2020/12/19 09:59:59;;;;;;;73.35;65.28;;;12.50;99.90;;;;;;4946593;29;20030;-74
2020/12/19 10:02:25;;;;;;;76.90;65.30;;;12.60;99.90;;;;;;4953894;29;20051;-74
2020/12/19 10:04:50;;;;;;;78.70;64.50;;;12.70;99.90;;;;;;4943243;29;20490;-74
2020/12/19 10:07:16;;;;;;;74.20;65.88;;;12.90;99.90;;;;;;4947893;29;20031;-74
2020/12/19 10:09:42;;;;;;;84.95;67.65;;;12.90;99.90;;;;;;4942765;29;20459;-74
2020/12/19 10:12:08;;;;;;;88.47;71.55;;;12.90;99.90;;;;;;4945932;29;20023;-73
2020/12/19 10:14:34;;;;;;;78.30;66.30;;;12.90;99.90;;;;;;4946500;29;20489;-76
2020/12/19 10:17:01;;;;;;;78.03;68.30;;;12.80;99.90;;;;;;4948567;29;20891;-76
2020/12/19 10:19:26;;;;;;;77.03;65.80;;;12.80;99.90;;;;;;4939819;29;20023;-73
2020/12/19 10:21:52;;;;;;;79.18;66.45;;;12.90;99.90;;;;;;4944716;29;20106;-74
2020/12/19 10:24:18;;;;;;;80.85;68.18;;;12.90;99.90;;;;;;4937206;29;20482;-73
2020/12/19 10:26:47;;;;;;;79.47;68.93;;;12.90;99.90;;;;;;4926201;29;20038;-74
2020/12/19 10:29:14;;;;;;;81.28;70.07;;;12.90;99.90;;;;;;4944584;29;20042;-74
2020/12/19 10:31:40;;;;;;;78.68;67.38;;;12.90;99.90;;;;;;4943342;29;20038;-74
2020/12/19 10:34:06;;;;;;;80.75;71.78;;;13.00;99.90;;;;;;4939698;29;20055;-77
2020/12/19 10:36:32;;;;;;;87.85;73.57;;;13.10;99.90;;;;;;4943150;29;20403;-74
2020/12/19 10:38:58;;;;;;;77.25;68.57;;;13.10;99.90;;;;;;4939021;29;20027;-73
2020/12/19 10:41:24;;;;;;;80.85;68.57;;;13.10;99.90;;;;;;4947300;29;20031;-76
2020/12/19 10:43:50;;;;;;;85.53;71.72;;;13.00;99.90;;;;;;4939256;29;20083;-74
2020/12/19 10:46:26;;;;;;;80.25;69.88;;;13.10;99.90;;;;;;4942879;29;20526;-74
2020/12/19 10:48:52;;;;;;;84.72;70.63;;;13.10;99.90;;;;;;4946644;29;20064;-74
2020/12/19 10:51:26;;;;;;;90.53;74.03;;;13.20;99.90;;;;;;4951237;29;20042;-74
2020/12/19 10:53:52;;;;;;;83.82;73.15;;;13.30;99.90;;;;;;4943239;29;20036;-75
2020/12/19 10:56:24;;;;;;;77.65;69.32;;;13.20;99.90;;;;;;4944550;29;20043;-74
2020/12/19 10:58:50;;;;;;;80.85;72.13;;;13.20;99.90;;;;;;4944848;29;20047;-74
2020/12/19 11:01:17;;;;;;;82.18;73.07;;;13.10;99.90;;;;;;4943976;29;20046;-74
2020/12/19 11:03:44;;;;;;;81.55;71.68;;;13.20;99.90;;;;;;4939205;29;20132;-73
2020/12/19 11:06:23;;;;;;;83.25;73.65;;;13.20;99.90;;;;;;4936879;29;20028;-74
2020/12/19 11:08:50;;;;;;;80.05;71.15;;;13.30;99.90;;;;;;4945866;29;20024;-73
2020/12/19 11:11:20;;;;;;;80.40;69.28;;;13.30;99.90;;;;;;4949779;29;20023;-73
2020/12/19 11:13:47;;;;;;;89.38;75.93;;;13.30;99.90;;;;;;4920300;29;20023;-73
2020/12/19 11:16:26;;;;;;;83.65;72.45;;;13.20;99.90;;;;;;4933046;29;20490;-74
2020/12/19 11:18:52;;;;;;;84.55;72.43;;;13.20;99.90;;;;;;4945413;29;20028;-74
2020/12/19 11:21:19;;;;;;;83.45;73.10;;;13.20;99.90;;;;;;4948047;29;20455;-74
2020/12/19 11:23:45;;;;;;;88.25;71.55;;;13.30;99.90;;;;;;4949559;29;20486;-74
2020/12/19 11:26:12;;;;;;;80.85;71.20;;;13.40;99.90;;;;;;4929188;29;20421;-74
2020/12/19 11:28:38;;;;;;;80.20;71.45;;;13.40;99.90;;;;;;4940756;29;20071;-74
2020/12/19 11:31:05;;;;;;;87.45;69.20;;;13.40;99.90;;;;;;4946737;29;20351;-73
2020/12/19 11:33:30;;;;;;;88.72;73.35;;;13.40;99.90;;;;;;4918936;29;20034;-74
2020/12/19 11:36:04;;;;;;;86.85;70.03;;;13.40;99.90;;;;;;4919509;29;20383;-74
2020/12/19 11:38:30;;;;;;;79.50;70.82;;;13.40;99.90;;;;;;4938262;29;20102;-73
2020/12/19 11:40:55;;;;;;;82.35;73.35;;;13.30;99.90;;;;;;4938207;29;20055;-74
2020/12/19 11:43:21;;;;;;;85.72;74.53;;;13.50;99.90;;;;;;4926881;29;20106;-74
2020/12/19 11:45:47;;;;;;;92.45;78.85;;;13.50;99.90;;;;;;4939432;29;20035;-74
2020/12/19 11:48:13;;;;;;;99.32;81.75;;;13.50;99.90;;;;;;4941571;29;20028;-73
2020/12/19 11:50:40;;;;;;;100.85;75.25;;;13.50;99.90;;;;;;4944273;29;20504;-74
2020/12/19 11:53:06;;;;;;;92.80;76.78;;;13.60;99.90;;;;;;4946170;29;20027;-73
2020/12/19 11:55:31;;;;;;;106.53;84.20;;;13.50;99.90;;;;;;4942875;29;20566;-73
2020/12/19 11:57:58;;;;;;;102.90;82.63;;;13.60;99.90;;;;;;4942565;29;20486;-74
2020/12/19 12:00:23;;;;;;;102.40;80.30;;;13.50;99.90;;;;;;4927858;29;20036;-74
2020/12/19 12:02:49;;;;;;;105.25;80.15;;;13.60;99.90;;;;;;4946946;29;20090;-77
2020/12/19 12:05:15;;;;;;;102.45;81.75;;;13.50;99.90;;;;;;4926765;29;20024;-73
2020/12/19 12:07:41;;;;;;;94.72;77.20;;;13.50;99.90;;;;;;4940112;29;20054;-74
2020/12/19 12:10:07;;;;;;;102.68;77.28;;;13.40;99.90;;;;;;4950807;28;20035;-74
2020/12/19 12:12:33;;;;;;;92.32;75.72;;;13.30;99.90;;;;;;4945881;29;20390;-74
2020/12/19 12:14:59;;;;;;;91.60;72.57;;;13.20;99.90;;;;;;4939819;29;20052;-73
2020/12/19 12:17:24;;;;;;;100.43;76.57;;;13.10;99.90;;;;;;4946124;29;20403;-74
2020/12/19 12:19:50;;;;;;;96.20;73.88;;;12.90;99.90;;;;;;4954458;29;20050;-74
2020/12/19 12:22:16;;;;;;;97.40;75.38;;;13.00;99.90;;;;;;4946317;29;20054;-74
2020/12/19 12:24:42;;;;;;;102.53;78.53;;;12.90;99.90;;;;;;4942774;29;20027;-74
2020/12/19 12:27:08;;;;;;;100.45;77.30;;;12.90;99.90;;;;;;4944281;29;20016;-74
2020/12/19 12:29:34;;;;;;;100.30;76.78;;;13.00;99.90;;;;;;4945258;29;20019;-73
2020/12/19 12:31:59;;;;;;;100.00;79.00;;;13.00;99.90;;;;;;4956151;29;20027;-73